Time;durP1;ratioP1;P1;durP2;ratioP2;P2;SDS_P1;SDS_P2;PMS_P1;PMS_P2;Temp;Humidity;BMP_temperature;BMP_pressure;BME280_temperature;BME280_humidity;BME280_pressure;Samples;Min_cycle;Max_cycle;Signal;HPM_P1;HPM_P2
2021/11/27 00:00:56;;;;;;;5.60;4.32;;;2.70;97.40;;;;;;5074256;28;20723;-81
2021/11/27 00:03:23;;;;;;;6.60;3.95;;;;;;;;;;5075389;28;20195;-81
2021/11/27 00:05:51;;;;;;;5.72;4.10;;;2.50;99.00;;;;;;5071438;28;20202;-81
2021/11/27 00:08:19;;;;;;;5.65;3.85;;;2.50;99.50;;;;;;5074142;28;20191;-81
2021/11/27 00:10:51;;;;;;;5.28;3.60;;;2.40;98.60;;;;;;5085221;28;20225;-81
2021/11/27 00:13:19;;;;;;;4.85;4.00;;;2.40;94.90;;;;;;5080622;28;20275;-81
2021/11/27 00:15:47;;;;;;;4.30;3.88;;;2.40;95.00;;;;;;5067916;28;20709;-80
2021/11/27 00:18:16;;;;;;;5.78;4.20;;;2.30;95.10;;;;;;5087586;28;20281;-81
2021/11/27 00:20:47;;;;;;;4.68;3.65;;;2.40;95.00;;;;;;5081231;28;20232;-81
2021/11/27 00:23:14;;;;;;;5.78;3.78;;;2.30;95.10;;;;;;5087320;28;20234;-81
2021/11/27 00:25:42;;;;;;;4.15;3.75;;;2.20;99.90;;;;;;5072130;28;20281;-81
2021/11/27 00:28:10;;;;;;;8.55;2.97;;;2.20;99.90;;;;;;5075808;28;20215;-80
2021/11/27 00:30:39;;;;;;;4.72;3.88;;;2.30;96.30;;;;;;5068656;28;20282;-81
2021/11/27 00:33:07;;;;;;;4.55;4.07;;;2.20;95.20;;;;;;5071323;28;20290;-80
2021/11/27 00:35:34;;;;;;;3.75;3.33;;;2.10;99.90;;;;;;5081172;28;20269;-81
2021/11/27 00:38:01;;;;;;;4.07;3.22;;;;;;;;;;5068553;28;20287;-81
2021/11/27 00:40:29;;;;;;;5.97;4.53;;;2.30;95.20;;;;;;5068683;28;20191;-80
2021/11/27 00:42:57;;;;;;;4.70;3.45;;;2.30;95.30;;;;;;5075916;28;20221;-81
2021/11/27 00:45:27;;;;;;;5.97;3.88;;;2.40;99.90;;;;;;5077446;28;20314;-81
2021/11/27 00:47:56;;;;;;;5.30;4.13;;;2.00;95.40;;;;;;5068611;28;20238;-81
2021/11/27 00:50:27;;;;;;;4.20;3.20;;;2.20;99.90;;;;;;5077948;28;20628;-80
2021/11/27 00:52:54;;;;;;;4.38;3.63;;;2.10;99.90;;;;;;5072314;28;20231;-81
2021/11/27 00:55:22;;;;;;;4.25;3.45;;;2.10;95.70;;;;;;5074537;28;20231;-81
2021/11/27 00:57:49;;;;;;;3.92;3.35;;;;;;;;;;5073366;28;20193;-81
2021/11/27 01:00:18;;;;;;;6.05;4.13;;;2.20;99.90;;;;;;5078855;28;20216;-81
2021/11/27 01:02:47;;;;;;;3.35;3.05;;;2.20;95.80;;;;;;5086281;28;20633;-81
2021/11/27 01:05:15;;;;;;;4.32;3.78;;;1.90;99.90;;;;;;5084107;28;20205;-80
2021/11/27 01:07:44;;;;;;;6.03;3.92;;;1.70;99.00;;;;;;5086366;28;20209;-81
2021/11/27 01:10:15;;;;;;;3.83;3.38;;;2.20;95.70;;;;;;5090628;28;20207;-80
2021/11/27 01:12:43;;;;;;;4.72;3.85;;;2.20;99.90;;;;;;5080562;28;20200;-81
2021/11/27 01:15:13;;;;;;;5.20;3.95;;;2.30;96.00;;;;;;5083581;28;20196;-81
2021/11/27 01:17:40;;;;;;;4.07;3.17;;;;;;;;;;5072348;28;20201;-81
2021/11/27 01:20:12;;;;;;;7.85;4.25;;;2.10;97.70;;;;;;5074507;28;20290;-80
2021/11/27 01:22:39;;;;;;;4.90;3.65;;;2.30;96.00;;;;;;5076288;28;20374;-81
2021/11/27 01:25:08;;;;;;;4.20;3.78;;;2.00;99.90;;;;;;5077198;28;20215;-81
2021/11/27 01:27:35;;;;;;;5.63;4.32;;;2.50;96.20;;;;;;5084472;28;20269;-81
2021/11/27 01:30:05;;;;;;;4.82;4.32;;;2.30;99.90;;;;;;5085293;28;20203;-81
2021/11/27 01:32:32;;;;;;;7.68;5.07;;;;;;;;;;5072634;28;20278;-80
2021/11/27 01:34:59;;;;;;;6.63;4.40;;;;;;;;;;5087023;28;20219;-81
2021/11/27 01:37:27;;;;;;;4.18;3.78;;;2.70;97.70;;;;;;5077330;28;20254;-80
2021/11/27 01:39:55;;;;;;;6.15;5.20;;;;;;;;;;5080369;28;20318;-81
2021/11/27 01:42:21;;;;;;;5.38;4.75;;;2.30;99.90;;;;;;5075183;28;20719;-80
2021/11/27 01:44:49;;;;;;;5.82;4.47;;;;;;;;;;5079302;28;20200;-81
2021/11/27 01:47:16;;;;;;;6.43;3.78;;;3.20;99.90;;;;;;5083544;28;20199;-81
2021/11/27 01:49:43;;;;;;;6.22;4.72;;;;;;;;;;5083095;28;20279;-81
2021/11/27 01:52:11;;;;;;;6.15;4.45;;;2.40;95.80;;;;;;5071638;28;20288;-81
2021/11/27 01:54:39;;;;;;;4.50;3.95;;;2.40;95.70;;;;;;5089692;28;20234;-81
2021/11/27 01:57:07;;;;;;;6.60;4.55;;;2.30;95.70;;;;;;5085557;28;20273;-81
2021/11/27 01:59:38;;;;;;;5.35;4.85;;;2.30;95.90;;;;;;5080984;28;20188;-80
2021/11/27 02:02:06;;;;;;;7.10;5.00;;;2.20;99.90;;;;;;5088446;28;20243;-80
2021/11/27 02:04:33;;;;;;;5.78;4.57;;;;;;;;;;5072470;28;20217;-81
2021/11/27 02:07:00;;;;;;;4.90;4.50;;;;;;;;;;5071597;28;20223;-81
2021/11/27 02:09:30;;;;;;;6.60;4.28;;;2.30;96.20;;;;;;5072307;28;20282;-80
2021/11/27 02:12:01;;;;;;;6.25;4.32;;;2.30;97.60;;;;;;5081291;28;20294;-81
2021/11/27 02:14:28;;;;;;;6.45;3.72;;;2.20;99.90;;;;;;5069722;28;20301;-81
2021/11/27 02:16:55;;;;;;;4.70;3.75;;;2.30;99.90;;;;;;5084015;28;20302;-81
2021/11/27 02:19:22;;;;;;;6.07;4.28;;;;;;;;;;5084147;28;20264;-81
2021/11/27 02:21:51;;;;;;;6.03;4.22;;;;;;;;;;5086535;28;20701;-80
2021/11/27 02:24:21;;;;;;;6.72;4.82;;;1.80;99.90;;;;;;5082541;28;20245;-81
2021/11/27 02:26:50;;;;;;;5.95;4.20;;;2.10;99.90;;;;;;5071067;28;20208;-80
2021/11/27 02:29:19;;;;;;;4.10;3.60;;;2.10;99.00;;;;;;5071746;28;20221;-81
2021/11/27 02:31:46;;;;;;;7.90;5.15;;;2.40;96.90;;;;;;5069496;28;20250;-81
2021/11/27 02:34:14;;;;;;;5.03;4.35;;;2.50;99.90;;;;;;5074210;28;20279;-81
2021/11/27 02:36:44;;;;;;;6.65;3.88;;;2.40;97.00;;;;;;5075688;28;20239;-82
2021/11/27 02:39:13;;;;;;;4.80;3.38;;;2.50;97.00;;;;;;5076934;28;20224;-81
2021/11/27 02:41:41;;;;;;;4.38;3.88;;;2.50;98.30;;;;;;5068248;28;20296;-80
2021/11/27 02:44:09;;;;;;;4.95;4.22;;;2.40;97.00;;;;;;5072381;28;20294;-81
2021/11/27 02:46:36;;;;;;;4.05;2.80;;;1.70;96.50;;;;;;5088476;28;20816;-80
2021/11/27 02:49:03;;;;;;;5.38;3.72;;;2.00;99.90;;;;;;5073143;28;20282;-81
2021/11/27 02:51:31;;;;;;;4.38;3.90;;;2.50;99.80;;;;;;5088966;28;20283;-81
2021/11/27 02:53:58;;;;;;;5.05;3.67;;;2.10;99.90;;;;;;5081909;28;20215;-81
2021/11/27 02:56:26;;;;;;;4.50;3.58;;;2.70;99.90;;;;;;5080107;28;20255;-81
2021/11/27 02:58:53;;;;;;;5.47;4.22;;;2.50;96.90;;;;;;5088682;28;20665;-81
2021/11/27 03:01:21;;;;;;;6.15;4.07;;;2.50;97.10;;;;;;5067739;28;20624;-80
2021/11/27 03:03:49;;;;;;;5.88;3.85;;;2.60;99.90;;;;;;5083834;28;20290;-80
2021/11/27 03:06:16;;;;;;;4.40;3.97;;;;;;;;;;5071143;28;20672;-81
2021/11/27 03:08:43;;;;;;;4.20;3.33;;;2.00;99.90;;;;;;5083606;28;20288;-80
2021/11/27 03:11:09;;;;;;;3.78;3.42;;;2.60;99.90;;;;;;5079064;28;20617;-80
2021/11/27 03:13:40;;;;;;;5.00;3.67;;;2.60;97.00;;;;;;5068428;28;20317;-81
2021/11/27 03:16:07;;;;;;;5.18;3.92;;;2.70;98.60;;;;;;5086363;28;20235;-80
2021/11/27 03:18:34;;;;;;;7.22;4.25;;;2.80;99.90;;;;;;5070819;28;20271;-81
2021/11/27 03:21:02;;;;;;;3.83;3.00;;;;;;;;;;5085516;28;20277;-81
2021/11/27 03:23:30;;;;;;;3.17;2.90;;;;;;;;;;5072127;28;20324;-80
2021/11/27 03:25:57;;;;;;;3.25;2.60;;;2.70;96.70;;;;;;5069425;28;20199;-81
2021/11/27 03:28:25;;;;;;;2.75;2.55;;;;;;;;;;5071834;28;20231;-80
2021/11/27 03:30:53;;;;;;;3.90;3.50;;;2.80;96.50;;;;;;5072111;28;20338;-81
2021/11/27 03:33:20;;;;;;;4.53;4.13;;;2.80;99.90;;;;;;5074685;28;20636;-80
2021/11/27 03:35:48;;;;;;;3.42;2.97;;;;;;;;;;5068817;28;20288;-80
2021/11/27 03:38:15;;;;;;;4.10;3.63;;;;;;;;;;5084225;28;20305;-81
2021/11/27 03:40:42;;;;;;;6.20;3.60;;;;;;;;;;5084353;28;20293;-80
2021/11/27 03:43:09;;;;;;;8.55;3.63;;;;;;;;;;5086207;28;20267;-81
2021/11/27 03:45:37;;;;;;;5.38;4.10;;;2.70;99.90;;;;;;5086013;28;20223;-80
2021/11/27 03:48:09;;;;;;;5.60;4.28;;;2.80;98.00;;;;;;5075419;28;20329;-81
2021/11/27 03:50:39;;;;;;;5.13;3.42;;;2.70;98.20;;;;;;5083269;28;20222;-80
2021/11/27 03:53:06;;;;;;;3.10;2.80;;;;;;;;;;5067533;28;20203;-81
2021/11/27 03:55:34;;;;;;;4.32;3.25;;;2.60;99.90;;;;;;5066354;28;20214;-81
2021/11/27 03:58:01;;;;;;;3.28;2.95;;;;;;;;;;5067612;28;20196;-81
2021/11/27 04:00:29;;;;;;;2.85;2.65;;;3.40;99.00;;;;;;5066729;28;20288;-80
2021/11/27 04:02:56;;;;;;;3.50;3.00;;;2.20;98.50;;;;;;5066967;28;20327;-81
2021/11/27 04:05:25;;;;;;;10.18;3.60;;;2.70;98.60;;;;;;5067149;28;20242;-80
2021/11/27 04:07:56;;;;;;;4.25;3.22;;;2.70;99.90;;;;;;5069641;28;20589;-80
2021/11/27 04:10:23;;;;;;;6.53;3.10;;;2.70;98.60;;;;;;5079919;28;20223;-80
2021/11/27 04:12:50;;;;;;;7.45;3.92;;;;;;;;;;5085849;28;20230;-80
2021/11/27 04:15:17;;;;;;;3.40;2.70;;;2.70;99.90;;;;;;5068239;28;20279;-80
2021/11/27 04:17:45;;;;;;;4.38;2.97;;;;;;;;;;5078137;28;20273;-81
2021/11/27 04:20:12;;;;;;;2.90;2.67;;;3.20;99.10;;;;;;5066766;28;20275;-80
2021/11/27 04:22:40;;;;;;;3.85;2.88;;;3.20;99.20;;;;;;5073683;28;20286;-81
2021/11/27 04:25:08;;;;;;;5.95;2.72;;;;;;;;;;5077303;28;20612;-81
2021/11/27 04:27:35;;;;;;;2.30;2.08;;;2.80;99.00;;;;;;5077086;28;20306;-81
2021/11/27 04:30:04;;;;;;;3.17;2.60;;;2.80;99.90;;;;;;5086521;28;20288;-80
2021/11/27 04:32:31;;;;;;;3.20;2.38;;;;;;;;;;5069296;28;20228;-81
2021/11/27 04:34:58;;;;;;;2.70;1.63;;;;;;;;;;5086351;28;20223;-80
2021/11/27 04:37:25;;;;;;;2.33;1.80;;;;;;;;;;5080150;28;20256;-81
2021/11/27 04:39:54;;;;;;;3.05;1.98;;;2.80;99.90;;;;;;5076602;28;20278;-80
2021/11/27 04:42:21;;;;;;;2.88;2.03;;;2.70;99.90;;;;;;5074257;28;20252;-80
2021/11/27 04:44:48;;;;;;;2.45;1.92;;;;;;;;;;5076579;28;20204;-80
2021/11/27 04:47:15;;;;;;;2.00;1.55;;;2.90;99.30;;;;;;5081136;28;20214;-80
2021/11/27 04:49:42;;;;;;;1.45;1.35;;;2.70;99.90;;;;;;5075352;28;20221;-80
2021/11/27 04:52:10;;;;;;;1.67;1.58;;;2.50;99.90;;;;;;5067576;28;20227;-80
2021/11/27 04:54:37;;;;;;;1.83;1.40;;;2.40;99.30;;;;;;5084748;28;20619;-80
2021/11/27 04:57:05;;;;;;;2.50;1.40;;;2.80;99.50;;;;;;5073711;28;20275;-80
2021/11/27 04:59:32;;;;;;;1.67;1.55;;;2.90;99.90;;;;;;5076755;28;20292;-80
2021/11/27 05:02:01;;;;;;;1.98;1.52;;;;;;;;;;5077089;28;20336;-80
2021/11/27 05:04:28;;;;;;;1.85;1.75;;;;;;;;;;5071390;28;20203;-80
2021/11/27 05:06:55;;;;;;;1.65;1.55;;;;;;;;;;5072078;28;20220;-80
2021/11/27 05:09:23;;;;;;;1.13;1.00;;;2.80;99.50;;;;;;5081487;28;20629;-80
2021/11/27 05:11:50;;;;;;;1.60;1.50;;;;;;;;;;5084946;28;20770;-80
2021/11/27 05:14:18;;;;;;;1.75;1.65;;;2.80;99.70;;;;;;5073492;28;20286;-80
2021/11/27 05:16:45;;;;;;;1.48;1.17;;;2.10;99.50;;;;;;5080735;28;20679;-80
2021/11/27 05:19:12;;;;;;;3.33;2.03;;;2.30;99.90;;;;;;5070637;28;20209;-81
2021/11/27 05:21:39;;;;;;;1.50;1.20;;;;;;;;;;5078479;28;20736;-81
2021/11/27 05:24:07;;;;;;;1.60;1.20;;;2.70;99.90;;;;;;5086169;28;20326;-80
2021/11/27 05:26:34;;;;;;;1.40;1.30;;;;;;;;;;5069507;28;20221;-80
2021/11/27 05:29:01;;;;;;;3.20;1.20;;;;;;;;;;5076789;28;20273;-80
2021/11/27 05:31:30;;;;;;;3.33;1.52;;;2.80;99.90;;;;;;5071435;28;20280;-80
2021/11/27 05:34:21;;;;;;;3.45;1.23;;;;;;;;;;5077977;28;20253;-80
2021/11/27 05:36:48;;;;;;;1.67;1.25;;;1.60;99.50;;;;;;5077265;28;20678;-81
2021/11/27 05:39:15;;;;;;;1.80;1.70;;;;;;;;;;5074728;28;20296;-81
2021/11/27 05:41:42;;;;;;;2.45;1.70;;;2.50;99.90;;;;;;5077676;28;20228;-80
2021/11/27 05:44:09;;;;;;;1.88;1.73;;;;;;;;;;5078250;28;20878;-81
2021/11/27 05:46:37;;;;;;;1.35;1.25;;;2.90;99.90;;;;;;5079120;28;20302;-80
2021/11/27 05:49:04;;;;;;;1.35;1.25;;;;;;;;;;5072643;28;20290;-80
2021/11/27 05:51:32;;;;;;;1.52;1.30;;;;;;;;;;5077866;28;20285;-80
2021/11/27 05:53:59;;;;;;;1.98;1.77;;;2.90;99.90;;;;;;5069538;28;20201;-81
2021/11/27 05:56:26;;;;;;;3.45;1.52;;;2.70;99.90;;;;;;5069224;28;20295;-80
2021/11/27 05:58:56;;;;;;;1.98;1.77;;;;;;;;;;5069891;28;20744;-81
2021/11/27 06:01:23;;;;;;;2.30;1.50;;;;;;;;;;5068882;28;20295;-80
2021/11/27 06:03:51;;;;;;;2.05;1.85;;;2.90;99.90;;;;;;5069248;28;20312;-80
2021/11/27 06:06:19;;;;;;;2.22;2.03;;;;;;;;;;5069377;28;20280;-80
2021/11/27 06:08:46;;;;;;;1.92;1.70;;;3.00;99.90;;;;;;5077225;28;21048;-81
2021/11/27 06:11:13;;;;;;;1.67;1.58;;;2.70;99.90;;;;;;5089467;28;20292;-80
2021/11/27 06:13:40;;;;;;;1.70;1.45;;;;;;;;;;5075488;28;20221;-81
2021/11/27 06:16:08;;;;;;;2.10;1.67;;;2.90;99.90;;;;;;5072330;28;20225;-80
2021/11/27 06:18:35;;;;;;;2.10;1.85;;;2.80;99.90;;;;;;5077745;28;20197;-80
2021/11/27 06:21:05;;;;;;;3.05;2.10;;;3.00;99.90;;;;;;5069925;28;20296;-81
2021/11/27 06:23:32;;;;;;;2.08;1.83;;;2.80;99.90;;;;;;5081129;28;20219;-80
2021/11/27 06:25:59;;;;;;;1.85;1.55;;;2.60;99.90;;;;;;5074566;28;20637;-80
2021/11/27 06:28:26;;;;;;;2.28;2.08;;;4.60;99.90;;;;;;5087548;28;20319;-80
2021/11/27 06:30:53;;;;;;;2.72;2.20;;;2.60;99.90;;;;;;5076368;28;20249;-80
2021/11/27 06:33:20;;;;;;;1.40;1.30;;;;;;;;;;5068762;28;20232;-80
2021/11/27 06:35:48;;;;;;;1.42;1.33;;;2.70;99.90;;;;;;5067871;28;20303;-81
2021/11/27 06:38:17;;;;;;;2.00;1.80;;;2.20;99.90;;;;;;5069099;28;20196;-81
2021/11/27 06:40:44;;;;;;;2.45;1.60;;;;;;;;;;5068198;28;20662;-80
2021/11/27 06:43:11;;;;;;;2.08;1.88;;;2.20;99.90;;;;;;5068821;28;20251;-81
2021/11/27 06:45:38;;;;;;;1.60;1.50;;;;;;;;;;5068863;28;20214;-82
2021/11/27 06:48:05;;;;;;;1.80;1.70;;;2.80;99.90;;;;;;5068636;28;20832;-82
2021/11/27 06:50:32;;;;;;;1.52;1.40;;;;;;;;;;5066668;28;20605;-81
2021/11/27 06:52:59;;;;;;;2.28;2.08;;;;;;;;;;5069166;28;20217;-82
2021/11/27 06:55:28;;;;;;;3.35;2.33;;;2.60;99.90;;;;;;5068357;28;20240;-82
2021/11/27 06:57:54;;;;;;;1.92;1.83;;;2.60;99.90;;;;;;5067794;28;20289;-82
2021/11/27 07:00:21;;;;;;;1.83;1.42;;;2.80;99.90;;;;;;5066875;28;20262;-81
2021/11/27 07:02:48;;;;;;;2.22;2.03;;;;;;;;;;5067466;28;20224;-82
2021/11/27 07:05:15;;;;;;;1.23;1.15;;;2.90;99.90;;;;;;5066994;28;20228;-81
2021/11/27 07:07:42;;;;;;;1.80;1.70;;;2.40;99.90;;;;;;5069163;28;20250;-81
2021/11/27 07:10:10;;;;;;;1.83;1.70;;;2.60;99.90;;;;;;5082486;28;20669;-81
2021/11/27 07:12:39;;;;;;;2.13;1.88;;;2.60;99.90;;;;;;5072295;28;20258;-82
2021/11/27 07:15:07;;;;;;;2.35;1.90;;;2.50;99.90;;;;;;5074478;28;20203;-82
2021/11/27 07:17:35;;;;;;;2.03;1.88;;;2.50;99.90;;;;;;5071000;28;20231;-81
2021/11/27 07:20:04;;;;;;;2.08;1.88;;;2.70;99.90;;;;;;5082212;28;20287;-81
2021/11/27 07:22:32;;;;;;;3.05;2.22;;;;;;;;;;5075655;28;20205;-81
2021/11/27 07:24:58;;;;;;;2.45;2.20;;;2.50;99.90;;;;;;5067458;28;20282;-82
2021/11/27 07:27:25;;;;;;;2.10;2.00;;;2.30;99.90;;;;;;5067966;28;20228;-82
2021/11/27 07:29:55;;;;;;;5.13;2.15;;;2.60;99.90;;;;;;5066396;28;20200;-81
2021/11/27 07:32:22;;;;;;;6.10;2.65;;;2.80;99.90;;;;;;5065501;28;20564;-82
2021/11/27 07:34:49;;;;;;;2.20;2.10;;;3.10;99.90;;;;;;5067555;28;20189;-82
2021/11/27 07:37:16;;;;;;;2.40;2.20;;;2.60;99.90;;;;;;5067478;28;20377;-81
2021/11/27 07:39:43;;;;;;;2.40;2.20;;;2.70;99.90;;;;;;5067554;28;20197;-81
2021/11/27 07:42:10;;;;;;;3.58;2.20;;;2.60;99.90;;;;;;5066833;28;20201;-81
2021/11/27 07:44:37;;;;;;;1.80;1.70;;;2.90;99.90;;;;;;5066899;28;20259;-81
2021/11/27 07:47:05;;;;;;;2.08;1.98;;;2.90;99.90;;;;;;5067689;28;20232;-82
2021/11/27 07:49:32;;;;;;;1.98;1.88;;;2.90;99.90;;;;;;5067325;28;20232;-82
2021/11/27 07:51:59;;;;;;;6.38;2.05;;;2.90;99.90;;;;;;5066509;28;20288;-81
2021/11/27 07:54:26;;;;;;;2.13;1.52;;;2.80;99.90;;;;;;5066979;28;20235;-81
2021/11/27 07:56:53;;;;;;;1.55;1.45;;;;;;;;;;5067181;28;20618;-82
2021/11/27 07:59:20;;;;;;;2.20;2.00;;;3.00;99.90;;;;;;5066025;28;20751;-81
2021/11/27 08:01:47;;;;;;;4.72;1.67;;;2.90;99.90;;;;;;5065691;28;20284;-82
2021/11/27 08:04:17;;;;;;;2.10;1.90;;;2.90;99.90;;;;;;5077048;28;20311;-81
2021/11/27 08:06:44;;;;;;;3.55;2.20;;;2.90;99.90;;;;;;5076447;28;20748;-81
2021/11/27 08:09:11;;;;;;;2.40;1.77;;;3.20;99.90;;;;;;5084088;28;20213;-81
2021/11/27 08:11:38;;;;;;;2.30;2.10;;;;;;;;;;5084283;28;20772;-81
2021/11/27 08:14:06;;;;;;;2.20;2.00;;;;;;;;;;5082128;28;20226;-81
2021/11/27 08:16:33;;;;;;;2.67;1.63;;;3.40;99.90;;;;;;5072643;28;20860;-81
2021/11/27 08:19:00;;;;;;;2.22;1.90;;;;;;;;;;5072456;28;20786;-81
2021/11/27 08:21:28;;;;;;;1.90;1.65;;;3.30;99.90;;;;;;5081115;28;20297;-81
2021/11/27 08:23:56;;;;;;;1.40;1.30;;;4.30;99.90;;;;;;5073499;28;20281;-81
2021/11/27 08:26:23;;;;;;;1.73;1.63;;;;;;;;;;5066290;28;20391;-81
2021/11/27 08:28:50;;;;;;;1.73;1.63;;;;;;;;;;5072016;28;20239;-81
2021/11/27 08:31:17;;;;;;;2.80;1.80;;;3.90;99.90;;;;;;5077489;28;20324;-82
2021/11/27 08:33:44;;;;;;;2.30;1.77;;;3.80;99.90;;;;;;5077612;28;20623;-81
2021/11/27 08:36:11;;;;;;;1.52;1.42;;;3.30;99.90;;;;;;5087191;28;20305;-82
2021/11/27 08:38:40;;;;;;;2.00;1.75;;;4.10;99.90;;;;;;5070537;28;20197;-81
2021/11/27 08:41:08;;;;;;;2.92;1.80;;;3.80;99.90;;;;;;5071355;28;20197;-81
2021/11/27 08:43:36;;;;;;;1.30;1.20;;;3.90;99.90;;;;;;5070475;28;20306;-81
2021/11/27 08:46:04;;;;;;;1.83;1.65;;;;;;;;;;5066833;28;20204;-82
2021/11/27 08:48:35;;;;;;;1.58;1.48;;;;;;;;;;5066853;28;20196;-81
2021/11/27 08:51:03;;;;;;;1.13;1.13;;;;;;;;;;5066382;28;20278;-81
2021/11/27 08:53:30;;;;;;;1.70;1.60;;;4.20;99.90;;;;;;5066784;28;20430;-81
2021/11/27 08:55:58;;;;;;;1.63;1.50;;;4.30;99.70;;;;;;5066602;28;20229;-81
2021/11/27 08:58:25;;;;;;;4.47;2.17;;;4.40;99.90;;;;;;5066680;28;20223;-81
2021/11/27 09:00:52;;;;;;;3.10;1.85;;;;;;;;;;5066186;28;20275;-81
2021/11/27 09:03:19;;;;;;;1.42;1.33;;;4.60;99.90;;;;;;5066775;28;20242;-82
2021/11/27 09:05:46;;;;;;;2.03;1.50;;;;;;;;;;5066499;28;20671;-82
2021/11/27 09:08:14;;;;;;;1.63;1.52;;;4.40;99.10;;;;;;5072495;28;20190;-81
2021/11/27 09:10:41;;;;;;;1.50;1.20;;;;;;;;;;5081832;28;20240;-82
2021/11/27 09:13:09;;;;;;;1.33;1.23;;;4.60;99.90;;;;;;5087228;28;20203;-83
2021/11/27 09:15:36;;;;;;;1.73;1.40;;;5.30;99.90;;;;;;5073930;28;20248;-81
2021/11/27 09:18:03;;;;;;;2.10;1.75;;;4.60;99.90;;;;;;5070814;28;20289;-82
2021/11/27 09:20:32;;;;;;;1.77;1.52;;;4.50;99.90;;;;;;5070467;28;20756;-81
2021/11/27 09:23:00;;;;;;;2.30;1.98;;;4.60;99.90;;;;;;5073738;28;20298;-82
2021/11/27 09:25:29;;;;;;;2.30;1.00;;;5.20;99.90;;;;;;5086125;28;20229;-82
2021/11/27 09:27:56;;;;;;;1.92;1.50;;;4.70;98.90;;;;;;5074727;28;20194;-82
2021/11/27 09:30:26;;;;;;;1.75;1.65;;;4.90;98.90;;;;;;5083919;28;20222;-82
2021/11/27 09:32:53;;;;;;;1.33;1.23;;;;;;;;;;5086849;28;20222;-81
2021/11/27 09:35:20;;;;;;;2.25;1.83;;;;;;;;;;5085592;28;20286;-82
2021/11/27 09:37:48;;;;;;;1.38;1.30;;;5.10;99.90;;;;;;5072989;28;20195;-82
2021/11/27 09:40:15;;;;;;;1.05;1.05;;;;;;;;;;5074207;28;20786;-82
2021/11/27 09:42:43;;;;;;;1.85;1.45;;;5.00;98.30;;;;;;5073942;28;20207;-82
2021/11/27 09:45:10;;;;;;;1.75;1.27;;;4.50;99.10;;;;;;5084315;28;20297;-82
2021/11/27 09:47:38;;;;;;;1.48;1.33;;;4.80;99.90;;;;;;5072393;28;20310;-81
2021/11/27 09:50:08;;;;;;;3.65;1.10;;;4.60;99.90;;;;;;5070847;28;20198;-81
2021/11/27 09:52:36;;;;;;;0.95;0.95;;;4.80;99.90;;;;;;5082135;28;20289;-81
2021/11/27 09:55:03;;;;;;;2.35;1.35;;;4.40;99.90;;;;;;5076434;28;20196;-82
2021/11/27 09:57:31;;;;;;;1.38;1.05;;;;;;;;;;5085429;28;20233;-82
2021/11/27 09:59:58;;;;;;;1.13;1.00;;;4.20;99.90;;;;;;5069135;28;20194;-81
2021/11/27 10:02:25;;;;;;;1.38;1.10;;;4.90;99.90;;;;;;5068584;28;20203;-82
2021/11/27 10:04:56;;;;;;;1.98;1.38;;;4.40;99.90;;;;;;5069456;28;20304;-81
2021/11/27 10:07:23;;;;;;;2.15;1.20;;;4.60;99.90;;;;;;5069611;28;20260;-82
2021/11/27 10:09:52;;;;;;;1.73;1.40;;;5.00;99.90;;;;;;5079101;28;20207;-82
2021/11/27 10:12:20;;;;;;;1.00;1.00;;;4.50;99.90;;;;;;5070189;28;20281;-82
2021/11/27 10:14:48;;;;;;;3.35;2.30;;;4.50;99.90;;;;;;5078459;28;20819;-81
2021/11/27 10:17:16;;;;;;;3.65;1.90;;;4.50;99.90;;;;;;5077261;28;20195;-82
2021/11/27 10:20:04;;;;;;;3.35;3.08;;;4.40;99.90;;;;;;5079868;28;20242;-81
2021/11/27 10:22:49;;;;;;;1.80;1.70;;;4.50;99.90;;;;;;5088392;28;20233;-82
2021/11/27 10:25:28;;;;;;;3.35;3.05;;;4.40;99.90;;;;;;5082754;28;20222;-82
2021/11/27 10:28:03;;;;;;;1.48;1.33;;;4.60;99.90;;;;;;5073438;28;20190;-82
2021/11/27 10:30:35;;;;;;;1.60;1.50;;;4.50;99.90;;;;;;5072381;28;20201;-83
2021/11/27 10:33:03;;;;;;;4.65;2.42;;;4.50;99.90;;;;;;5074971;28;20232;-81
2021/11/27 10:35:32;;;;;;;1.90;1.42;;;;;;;;;;5078267;28;20234;-82
2021/11/27 10:37:59;;;;;;;1.40;1.27;;;;;;;;;;5078526;28;20289;-82
2021/11/27 10:40:29;;;;;;;5.10;2.15;;;4.70;99.90;;;;;;5077129;28;20282;-82
2021/11/27 10:42:58;;;;;;;1.95;1.60;;;4.80;99.90;;;;;;5077614;28;20281;-81
2021/11/27 10:45:28;;;;;;;1.90;1.45;;;4.70;99.30;;;;;;5078750;28;20230;-82
2021/11/27 10:48:09;;;;;;;2.50;2.28;;;4.80;98.90;;;;;;5080406;28;20193;-82
2021/11/27 10:50:40;;;;;;;5.82;5.22;;;4.90;98.70;;;;;;5087761;28;20643;-82
2021/11/27 10:53:10;;;;;;;4.85;4.00;;;4.90;98.50;;;;;;5085728;28;20195;-82
2021/11/27 10:55:39;;;;;;;4.93;3.50;;;;;;;;;;5071334;28;20272;-82
2021/11/27 10:58:08;;;;;;;4.30;2.53;;;4.40;99.90;;;;;;5068996;28;20216;-82
2021/11/27 11:00:38;;;;;;;1.05;0.95;;;4.80;97.90;;;;;;5077790;28;20229;-82
2021/11/27 11:03:10;;;;;;;2.67;2.00;;;4.90;97.50;;;;;;5076591;28;20697;-82
2021/11/27 11:05:39;;;;;;;2.53;1.83;;;5.00;98.00;;;;;;5076009;28;20283;-82
2021/11/27 11:08:08;;;;;;;1.77;1.30;;;5.20;99.90;;;;;;5084218;28;20222;-82
2021/11/27 11:10:36;;;;;;;1.60;1.38;;;5.00;99.90;;;;;;5082782;28;20226;-82
2021/11/27 11:13:06;;;;;;;2.35;1.35;;;5.10;99.90;;;;;;5078892;28;20266;-82
2021/11/27 11:15:37;;;;;;;1.55;1.25;;;5.80;99.90;;;;;;5086481;28;20229;-82
2021/11/27 11:18:18;;;;;;;1.45;1.20;;;4.90;96.60;;;;;;5077525;28;20690;-82
2021/11/27 11:20:48;;;;;;;1.45;1.25;;;7.10;98.00;;;;;;5067951;28;20565;-81
2021/11/27 11:23:19;;;;;;;1.65;1.55;;;4.90;96.90;;;;;;5081179;28;20560;-82
2021/11/27 11:25:59;;;;;;;2.83;1.10;;;4.90;97.80;;;;;;5072044;28;20230;-82
2021/11/27 11:28:28;;;;;;;4.75;3.00;;;5.70;99.90;;;;;;5067824;28;20202;-82
2021/11/27 11:31:00;;;;;;;1.85;1.58;;;5.00;97.00;;;;;;5067373;28;20223;-81
2021/11/27 11:33:28;;;;;;;1.90;1.60;;;5.10;97.30;;;;;;5067824;28;20206;-82
2021/11/27 11:35:56;;;;;;;1.58;1.48;;;5.10;97.00;;;;;;5067024;28;20203;-82
2021/11/27 11:38:23;;;;;;;3.15;2.65;;;;;;;;;;5068241;28;20245;-81
2021/11/27 11:40:52;;;;;;;4.35;2.10;;;;;;;;;;5082126;28;20223;-82
2021/11/27 11:43:19;;;;;;;4.95;2.28;;;5.10;97.20;;;;;;5068185;28;20214;-82
2021/11/27 11:45:47;;;;;;;1.80;1.65;;;;;;;;;;5086950;28;20224;-82
2021/11/27 11:48:19;;;;;;;3.05;2.58;;;;;;;;;;5088089;28;20210;-82
2021/11/27 11:50:49;;;;;;;3.08;2.20;;;5.20;97.30;;;;;;5068522;28;20214;-82
2021/11/27 11:53:26;;;;;;;2.38;2.10;;;5.40;97.50;;;;;;5086099;28;20207;-82
2021/11/27 11:55:56;;;;;;;1.30;1.17;;;5.30;96.80;;;;;;5071488;28;20253;-82
2021/11/27 11:58:29;;;;;;;3.75;3.38;;;5.40;97.20;;;;;;5079511;28;20302;-81
2021/11/27 12:03:43;;;;;;;2.65;2.00;;;4.70;97.60;;;;;;5078844;28;20217;-82
2021/11/27 12:06:18;;;;;;;1.73;1.40;;;5.30;96.90;;;;;;5078266;28;20692;-81
2021/11/27 12:09:10;;;;;;;1.75;1.65;;;5.10;97.20;;;;;;5077337;28;20572;-81
2021/11/27 12:12:05;;;;;;;2.33;2.15;;;5.10;98.50;;;;;;5086010;28;20207;-81
2021/11/27 12:14:59;;;;;;;2.10;1.92;;;5.30;96.60;;;;;;5073649;28;20207;-81
2021/11/27 12:17:26;;;;;;;3.03;1.58;;;5.30;96.90;;;;;;5059315;28;20211;-82
2021/11/27 12:19:55;;;;;;;1.73;1.63;;;5.40;97.20;;;;;;5077303;28;20233;-82
2021/11/27 12:22:42;;;;;;;1.50;1.35;;;5.80;99.90;;;;;;5087503;28;20195;-82
2021/11/27 12:25:19;;;;;;;1.77;1.67;;;5.40;96.60;;;;;;5075791;28;20242;-82
2021/11/27 12:28:12;;;;;;;4.60;3.75;;;5.40;96.80;;;;;;5072497;28;20194;-81
2021/11/27 12:31:05;;;;;;;2.40;2.30;;;5.50;96.80;;;;;;5067822;28;20246;-81
2021/11/27 12:33:52;;;;;;;7.30;6.10;;;5.50;96.30;;;;;;5075293;28;20276;-82
2021/11/27 12:36:52;;;;;;;3.85;2.97;;;5.60;96.60;;;;;;5076613;28;20238;-81
2021/11/27 12:39:42;;;;;;;1.98;1.80;;;5.40;96.30;;;;;;5078322;28;20282;-82
2021/11/27 12:42:26;;;;;;;1.85;1.20;;;5.40;96.20;;;;;;5080104;28;20207;-83
2021/11/27 12:44:54;;;;;;;1.98;1.88;;;5.50;95.90;;;;;;5080967;28;20223;-82
2021/11/27 12:47:41;;;;;;;1.40;1.10;;;5.70;96.20;;;;;;5081849;28;20226;-83
2021/11/27 12:50:19;;;;;;;2.90;2.50;;;5.20;95.60;;;;;;5085379;28;20278;-81
2021/11/27 12:52:47;;;;;;;1.85;1.30;;;5.60;95.30;;;;;;5076370;28;20310;-82
2021/11/27 12:55:40;;;;;;;1.40;1.30;;;5.60;99.90;;;;;;5087621;28;21028;-82
2021/11/27 12:58:39;;;;;;;1.70;1.08;;;5.40;94.70;;;;;;5091335;28;20197;-82
2021/11/27 13:01:06;;;;;;;5.70;3.58;;;;;;;;;;5073177;28;20329;-82
2021/11/27 13:03:33;;;;;;;5.13;3.10;;;5.30;99.90;;;;;;5086792;28;20261;-83
2021/11/27 13:06:00;;;;;;;1.95;1.50;;;;;;;;;;5080150;28;20280;-82
2021/11/27 13:08:30;;;;;;;1.75;1.65;;;5.40;99.90;;;;;;5090644;28;20306;-82
2021/11/27 13:10:57;;;;;;;1.92;1.83;;;;;;;;;;5077572;28;20240;-81
2021/11/27 13:13:27;;;;;;;1.40;1.30;;;;;;;;;;5070657;28;20198;-82
2021/11/27 13:15:57;;;;;;;1.13;1.02;;;5.20;97.50;;;;;;5068734;28;20305;-82
2021/11/27 13:18:25;;;;;;;1.83;0.90;;;4.80;99.90;;;;;;5070753;28;20329;-82
2021/11/27 13:20:54;;;;;;;0.75;0.68;;;4.50;98.30;;;;;;5070035;28;20269;-82
2021/11/27 13:23:23;;;;;;;0.50;0.45;;;4.00;99.50;;;;;;5070806;28;20238;-81
2021/11/27 13:25:52;;;;;;;0.50;0.50;;;3.20;99.90;;;;;;5068677;28;20304;-82
2021/11/27 13:28:27;;;;;;;0.93;0.50;;;2.40;99.90;;;;;;5077006;28;20198;-82
2021/11/27 13:30:58;;;;;;;0.80;0.45;;;2.10;99.90;;;;;;5078461;28;20231;-82
2021/11/27 13:33:26;;;;;;;0.40;0.40;;;1.80;99.90;;;;;;5082330;28;20210;-81